Time;durP1;ratioP1;P1;durP2;ratioP2;P2;SDS_P1;SDS_P2;PMS_P1;PMS_P2;Temp;Humidity;BMP_temperature;BMP_pressure;BME280_temperature;BME280_humidity;BME280_pressure;Samples;Min_cycle;Max_cycle;Signal;HPM_P1;HPM_P2
2023/06/23 00:00:45;;;;;;;;;;;17.90;99.90;;;;;;4971797;28;19958;-66
2023/06/23 00:03:14;;;;;;;;;;;17.90;99.90;;;;;;4971785;28;19926;-66
2023/06/23 00:05:40;;;;;;;;;;;17.80;99.90;;;;;;4971704;28;19933;-67
2023/06/23 00:08:07;;;;;;;;;;;17.80;99.90;;;;;;4971894;28;19926;-65
2023/06/23 00:10:34;;;;;;;;;;;17.70;99.90;;;;;;4971808;28;19957;-65
2023/06/23 00:13:02;;;;;;;;;;;17.60;99.90;;;;;;4972015;28;19926;-64
2023/06/23 00:15:29;;;;;;;;;;;17.60;99.90;;;;;;4975304;28;19926;-66
2023/06/23 00:17:56;;;;;;;;;;;17.60;99.90;;;;;;4973701;28;19958;-64
2023/06/23 00:20:24;;;;;;;;;;;17.60;99.90;;;;;;4975379;28;19926;-66
2023/06/23 00:22:50;;;;;;;;;;;17.50;99.90;;;;;;4968389;28;20294;-65
2023/06/23 00:25:18;;;;;;;;;;;17.50;99.90;;;;;;4975642;28;19926;-65
2023/06/23 00:27:45;;;;;;;;;;;17.40;99.90;;;;;;4978640;28;19930;-65
2023/06/23 00:30:12;;;;;;;;;;;17.30;99.90;;;;;;4979180;28;20034;-65
2023/06/23 00:32:39;;;;;;;;;;;17.30;99.90;;;;;;4975515;28;19929;-65
2023/06/23 00:35:08;;;;;;;;;;;17.20;99.90;;;;;;4980102;28;19932;-65
2023/06/23 00:37:38;;;;;;;;;;;17.20;99.90;;;;;;4975601;28;19930;-65
2023/06/23 00:40:07;;;;;;;;;;;17.10;99.90;;;;;;4975676;28;20029;-64
2023/06/23 00:42:42;;;;;;;;;;;17.10;99.90;;;;;;4975352;28;19930;-64
2023/06/23 00:45:10;;;;;;;;;;;17.00;99.90;;;;;;4976300;28;20381;-65
2023/06/23 00:47:37;;;;;;;;;;;17.00;99.90;;;;;;4973917;28;19952;-64
2023/06/23 00:50:05;;;;;;;;;;;17.00;99.90;;;;;;4972474;28;19985;-65
2023/06/23 00:52:32;;;;;;;;;;;17.00;99.90;;;;;;4974929;28;20014;-64
2023/06/23 00:55:03;;;;;;;;;;;16.90;99.90;;;;;;4975364;28;19934;-64
2023/06/23 00:57:29;;;;;;;;;;;16.80;99.90;;;;;;4975183;28;19926;-64
2023/06/23 00:59:56;;;;;;;;;;;16.70;99.90;;;;;;4977935;28;19973;-65
2023/06/23 01:02:23;;;;;;;;;;;16.70;99.90;;;;;;4974938;28;19930;-65
2023/06/23 01:04:50;;;;;;;;;;;16.60;99.90;;;;;;4974895;28;19930;-65
2023/06/23 01:07:21;;;;;;;;;;;16.60;99.90;;;;;;4974801;28;20381;-65
2023/06/23 01:09:55;;;;;;;;;;;16.60;99.90;;;;;;4974002;28;19926;-65
2023/06/23 01:12:38;;;;;;;;;;;16.60;99.90;;;;;;4968827;28;19926;-65
2023/06/23 01:15:09;;;;;;;;;;;16.60;99.90;;;;;;4974823;28;19933;-65
2023/06/23 01:17:38;;;;;;;;;;;16.50;99.90;;;;;;4974104;28;19930;-65
2023/06/23 01:20:17;;;;;;;;;;;16.60;99.90;;;;;;4978196;28;20017;-65
2023/06/23 01:22:51;;;;;;;;;;;16.60;99.90;;;;;;4973894;28;19934;-65
2023/06/23 01:25:22;;;;;;;;;;;16.60;99.90;;;;;;4973592;28;19925;-65
2023/06/23 01:28:03;;;;;;;;;;;16.60;99.90;;;;;;4974146;28;19926;-65
2023/06/23 01:30:33;;;;;;;;;;;16.60;99.90;;;;;;4980961;28;19973;-65
2023/06/23 01:33:05;;;;;;;;;;;16.60;99.90;;;;;;4973980;28;19934;-66
2023/06/23 01:35:34;;;;;;;;;;;16.60;99.90;;;;;;4974064;28;19934;-65
2023/06/23 01:38:03;;;;;;;;;;;16.50;99.90;;;;;;4974000;28;19993;-65
2023/06/23 01:40:31;;;;;;;;;;;16.50;99.90;;;;;;4980682;28;19930;-65
2023/06/23 01:42:59;;;;;;;;;;;16.50;99.90;;;;;;4973911;28;19926;-65
2023/06/23 01:45:27;;;;;;;;;;;16.50;99.90;;;;;;4974353;28;19926;-64
2023/06/23 01:47:58;;;;;;;;;;;16.40;99.90;;;;;;4979906;28;19969;-65
2023/06/23 01:50:24;;;;;;;;;;;16.40;99.90;;;;;;4972383;28;19957;-66
2023/06/23 01:52:52;;;;;;;;;;;16.30;99.90;;;;;;4974178;28;19926;-65
2023/06/23 01:55:20;;;;;;;;;;;16.30;99.90;;;;;;4973921;28;19926;-65
2023/06/23 01:57:48;;;;;;;;;;;16.30;99.90;;;;;;4973447;28;19926;-66
2023/06/23 02:00:16;;;;;;;;;;;16.30;99.90;;;;;;4973559;28;19930;-65
2023/06/23 02:02:44;;;;;;;;;;;16.20;99.90;;;;;;4977828;28;19934;-65
2023/06/23 02:05:14;;;;;;;;;;;16.20;99.90;;;;;;4976882;28;19927;-65
2023/06/23 02:07:41;;;;;;;;;;;16.20;99.90;;;;;;4980259;28;19934;-64
2023/06/23 02:10:09;;;;;;;;;;;16.10;99.90;;;;;;4973381;28;19926;-65
2023/06/23 02:12:36;;;;;;;;;;;16.10;99.90;;;;;;4973537;28;19926;-65
2023/06/23 02:15:04;;;;;;;;;;;16.10;99.90;;;;;;4973287;28;20435;-65
2023/06/23 02:17:31;;;;;;;;;;;16.20;99.90;;;;;;4973242;28;19926;-65
2023/06/23 02:19:59;;;;;;;;;;;16.20;99.90;;;;;;4973077;28;19926;-64
2023/06/23 02:22:28;;;;;;;;;;;16.20;99.90;;;;;;4973351;28;19933;-64
2023/06/23 02:27:48;;;;;;;;;;;16.20;99.90;;;;;;4921276;29;19934;-64
2023/06/23 02:30:17;;;;;;;;;;;16.30;99.90;;;;;;4925816;29;19982;-64
2023/06/23 02:32:44;;;;;;;;;;;16.20;99.90;;;;;;4929608;29;19927;-64
2023/06/23 02:35:13;;;;;;;;;;;16.20;99.90;;;;;;4918451;29;20009;-64
2023/06/23 02:37:43;;;;;;;;;;;16.20;99.90;;;;;;4933940;29;19951;-64
2023/06/23 02:40:16;;;;;;;;;;;16.20;99.90;;;;;;4937310;29;19930;-64
2023/06/23 02:42:45;;;;;;;;;;;16.20;99.90;;;;;;4941221;29;19997;-64
2023/06/23 02:45:17;;;;;;;;;;;16.10;99.90;;;;;;4935562;29;21282;-64
2023/06/23 02:47:45;;;;;;;;;;;16.10;99.90;;;;;;4938454;29;19990;-63
2023/06/23 02:50:12;;;;;;;;;;;16.00;99.90;;;;;;4942465;29;20158;-65
2023/06/23 02:52:42;;;;;;;;;;;16.00;99.90;;;;;;4938742;29;19926;-64
2023/06/23 02:55:11;;;;;;;;;;;16.00;99.90;;;;;;4936997;29;19957;-64
2023/06/23 02:57:38;;;;;;;;;;;16.00;99.90;;;;;;4936761;29;19926;-64
2023/06/23 03:00:12;;;;;;;;;;;16.00;99.90;;;;;;4942944;29;19962;-64
2023/06/23 03:02:40;;;;;;;;;;;16.00;99.90;;;;;;4932850;29;19933;-64
2023/06/23 03:05:08;;;;;;;;;;;16.00;99.90;;;;;;4936877;29;19987;-64
2023/06/23 03:07:38;;;;;;;;;;;15.90;99.90;;;;;;4938700;29;19926;-64
2023/06/23 03:10:06;;;;;;;;;;;15.90;99.90;;;;;;4950949;29;20402;-64
2023/06/23 03:12:34;;;;;;;;;;;15.80;99.90;;;;;;4939790;29;19935;-64
2023/06/23 03:15:01;;;;;;;;;;;15.80;99.90;;;;;;4944925;28;19933;-65
2023/06/23 03:17:30;;;;;;;;;;;15.80;99.90;;;;;;4936335;29;19927;-64
2023/06/23 03:20:00;;;;;;;;;;;15.80;99.90;;;;;;4935535;29;19933;-64
2023/06/23 03:22:31;;;;;;;;;;;15.80;99.90;;;;;;4938242;29;19981;-64
2023/06/23 03:25:02;;;;;;;;;;;15.80;99.90;;;;;;4940982;29;19933;-64
2023/06/23 03:27:29;;;;;;;;;;;15.70;99.90;;;;;;4944697;29;20289;-64
2023/06/23 03:30:02;;;;;;;;;;;15.70;99.90;;;;;;4934989;29;19927;-64
2023/06/23 03:32:33;;;;;;;;;;;15.70;99.90;;;;;;4937861;29;19927;-64
2023/06/23 03:35:03;;;;;;;;;;;15.70;99.90;;;;;;4941515;29;19927;-63
2023/06/23 03:37:32;;;;;;;;;;;15.70;99.90;;;;;;4935917;29;19949;-65
2023/06/23 03:40:01;;;;;;;;;;;15.70;99.90;;;;;;4947086;29;20333;-64
2023/06/23 03:42:28;;;;;;;;;;;15.70;99.90;;;;;;4945285;29;19927;-64
2023/06/23 03:44:56;;;;;;;;;;;15.70;99.90;;;;;;4934870;29;19927;-64
2023/06/23 03:47:25;;;;;;;;;;;15.70;99.90;;;;;;4933393;29;20303;-64
2023/06/23 03:49:55;;;;;;;;;;;15.70;99.90;;;;;;4936298;29;19977;-64
2023/06/23 03:52:23;;;;;;;;;;;15.70;99.90;;;;;;4937510;29;20398;-64
2023/06/23 03:54:50;;;;;;;;;;;15.80;99.90;;;;;;4940870;29;19926;-64
2023/06/23 03:57:19;;;;;;;;;;;15.80;99.90;;;;;;4940700;29;19934;-64
2023/06/23 03:59:47;;;;;;;;;;;15.80;99.90;;;;;;4940700;29;20013;-64
2023/06/23 04:02:16;;;;;;;;;;;15.80;99.90;;;;;;4943053;29;19958;-64
2023/06/23 04:04:44;;;;;;;;;;;15.80;99.90;;;;;;4947077;29;19927;-64
2023/06/23 04:07:11;;;;;;;;;;;15.80;99.90;;;;;;4940356;29;19961;-64
2023/06/23 04:09:40;;;;;;;;;;;15.80;99.90;;;;;;4935752;29;20013;-64
2023/06/23 04:12:09;;;;;;;;;;;15.90;99.90;;;;;;4937341;29;20085;-64
2023/06/23 04:14:37;;;;;;;;;;;15.90;99.90;;;;;;4939283;29;19927;-64
2023/06/23 04:17:05;;;;;;;;;;;15.90;99.90;;;;;;4938392;29;19931;-64
2023/06/23 04:19:32;;;;;;;;;;;15.90;99.90;;;;;;4947408;29;19970;-63
2023/06/23 04:22:01;;;;;;;;;;;15.90;99.90;;;;;;4937687;29;19965;-64
2023/06/23 04:24:28;;;;;;;;;;;16.00;99.90;;;;;;4932281;29;19927;-65
2023/06/23 04:26:55;;;;;;;;;;;16.00;99.90;;;;;;4938224;29;20018;-64
2023/06/23 04:29:23;;;;;;;;;;;16.00;99.90;;;;;;4935868;29;19969;-64
2023/06/23 04:31:52;;;;;;;;;;;16.10;99.90;;;;;;4934738;29;19993;-64
2023/06/23 04:34:18;;;;;;;;;;;16.20;99.90;;;;;;4932548;29;20488;-63
2023/06/23 04:36:46;;;;;;;;;;;16.20;99.90;;;;;;4932955;29;20373;-64
2023/06/23 04:39:16;;;;;;;;;;;16.20;99.90;;;;;;4934046;29;20295;-65
2023/06/23 04:41:46;;;;;;;;;;;16.20;99.90;;;;;;4939020;29;19973;-64
2023/06/23 04:44:13;;;;;;;;;;;16.20;99.90;;;;;;4938980;28;19973;-65
2023/06/23 04:46:41;;;;;;;;;;;16.20;99.90;;;;;;4932567;29;19983;-64
2023/06/23 04:49:09;;;;;;;;;;;16.20;99.90;;;;;;4930939;29;19934;-64
2023/06/23 04:51:38;;;;;;;;;;;16.10;99.90;;;;;;4942398;29;19969;-64
2023/06/23 04:54:11;;;;;;;;;;;16.20;99.90;;;;;;4934890;29;20032;-64
2023/06/23 04:56:41;;;;;;;;;;;16.20;99.90;;;;;;4939898;29;19937;-64
2023/06/23 04:59:09;;;;;;;;;;;16.20;99.90;;;;;;4937310;29;20313;-64
2023/06/23 05:01:36;;;;;;;;;;;16.20;99.90;;;;;;4941272;29;20346;-63
2023/06/23 05:04:04;;;;;;;;;;;16.30;99.90;;;;;;4936729;29;19927;-64
2023/06/23 05:06:32;;;;;;;;;;;16.30;99.90;;;;;;4945943;29;19927;-63
2023/06/23 05:09:00;;;;;;;;;;;16.30;99.90;;;;;;4950940;29;20452;-64
2023/06/23 05:11:27;;;;;;;;;;;16.40;99.90;;;;;;4953595;29;19930;-63
2023/06/23 05:13:56;;;;;;;;;;;16.40;99.90;;;;;;4938037;29;19931;-64
2023/06/23 05:16:23;;;;;;;;;;;16.40;99.90;;;;;;4945241;29;19926;-64
2023/06/23 05:18:51;;;;;;;;;;;16.50;99.90;;;;;;4940203;29;19927;-71
2023/06/23 05:21:19;;;;;;;;;;;16.50;99.90;;;;;;4939748;29;19926;-71
2023/06/23 05:23:48;;;;;;;;;;;16.50;99.90;;;;;;4940716;29;19967;-63
2023/06/23 05:26:15;;;;;;;;;;;16.60;99.90;;;;;;4941059;29;19938;-64
2023/06/23 05:28:42;;;;;;;;;;;16.60;99.90;;;;;;4946790;28;19973;-64
2023/06/23 05:31:12;;;;;;;;;;;16.60;99.90;;;;;;4934700;29;19950;-66
2023/06/23 05:33:40;;;;;;;;;;;16.70;99.90;;;;;;4963543;28;19927;-71
2023/06/23 05:36:08;;;;;;;;;;;16.70;99.90;;;;;;4953325;28;19962;-64
2023/06/23 05:38:37;;;;;;;;;;;16.80;99.90;;;;;;4940990;28;20017;-64
2023/06/23 05:41:03;;;;;;;;;;;16.90;99.90;;;;;;4939517;29;20021;-64
2023/06/23 05:43:30;;;;;;;;;;;16.90;99.90;;;;;;4933550;29;19962;-64
2023/06/23 05:45:58;;;;;;;;;;;16.90;99.90;;;;;;4942669;29;19927;-64
2023/06/23 05:48:28;;;;;;;;;;;17.00;99.90;;;;;;4939627;29;20013;-64
2023/06/23 05:50:56;;;;;;;;;;;17.00;99.90;;;;;;4937608;29;19931;-64
2023/06/23 05:53:24;;;;;;;;;;;17.10;99.90;;;;;;4940553;29;19926;-64
2023/06/23 05:55:52;;;;;;;;;;;17.10;99.90;;;;;;4947737;29;19928;-64
2023/06/23 05:58:19;;;;;;;;;;;17.20;99.90;;;;;;4936117;29;19983;-64
2023/06/23 06:00:49;;;;;;;;;;;17.20;99.90;;;;;;4935197;29;19931;-64
2023/06/23 06:03:16;;;;;;;;;;;17.30;99.90;;;;;;4942804;29;20326;-64
2023/06/23 06:05:46;;;;;;;;;;;17.30;99.90;;;;;;4938599;29;19934;-61
2023/06/23 06:08:13;;;;;;;;;;;17.40;99.90;;;;;;4942845;29;20009;-64
2023/06/23 06:10:40;;;;;;;;;;;17.50;99.90;;;;;;4942856;29;19927;-63
2023/06/23 06:13:08;;;;;;;;;;;17.70;99.90;;;;;;4936902;29;19927;-63
2023/06/23 06:15:35;;;;;;;;;;;17.80;99.90;;;;;;4938007;28;19937;-64
2023/06/23 06:18:06;;;;;;;;;;;17.90;99.90;;;;;;4943278;29;19937;-64
2023/06/23 06:20:35;;;;;;;;;;;18.00;99.90;;;;;;4938355;29;19926;-64
2023/06/23 06:23:04;;;;;;;;;;;18.00;99.90;;;;;;4938827;29;19978;-64
2023/06/23 06:25:32;;;;;;;;;;;18.00;99.90;;;;;;4940381;29;20401;-63
2023/06/23 06:27:59;;;;;;;;;;;18.10;99.90;;;;;;4942642;29;20362;-64
2023/06/23 06:30:26;;;;;;;;;;;18.20;99.90;;;;;;4940725;29;19934;-64
2023/06/23 06:32:53;;;;;;;;;;;18.20;99.90;;;;;;4953157;28;19934;-64
2023/06/23 06:35:22;;;;;;;;;;;18.30;99.90;;;;;;4945554;29;19931;-64
2023/06/23 06:37:51;;;;;;;;;;;18.40;99.90;;;;;;4939960;29;19926;-64
2023/06/23 06:40:22;;;;;;;;;;;18.50;99.90;;;;;;4948535;29;20386;-64
2023/06/23 06:42:49;;;;;;;;;;;18.40;99.90;;;;;;4941320;29;19931;-64
2023/06/23 06:45:15;;;;;;;;;;;18.40;99.90;;;;;;4941009;29;19930;-64
2023/06/23 06:47:44;;;;;;;;;;;18.40;99.90;;;;;;4946233;29;19934;-65
2023/06/23 06:50:11;;;;;;;;;;;18.30;99.90;;;;;;4943083;29;19927;-63
2023/06/23 06:52:40;;;;;;;;;;;18.40;99.90;;;;;;4940246;29;20426;-63
2023/06/23 06:55:09;;;;;;;;;;;18.50;99.90;;;;;;4936591;29;19934;-63
2023/06/23 06:57:37;;;;;;;;;;;18.60;99.90;;;;;;4946578;28;19969;-63
2023/06/23 07:00:05;;;;;;;;;;;18.60;99.90;;;;;;4942071;29;19926;-63
2023/06/23 07:02:32;;;;;;;;;;;18.70;99.90;;;;;;4943992;29;20358;-64
2023/06/23 07:05:01;;;;;;;;;;;18.90;99.90;;;;;;4940694;29;19933;-64
2023/06/23 07:07:30;;;;;;;;;;;18.90;99.90;;;;;;4944336;29;20362;-64
2023/06/23 07:09:57;;;;;;;;;;;18.90;99.90;;;;;;4944624;29;20342;-64
2023/06/23 07:12:24;;;;;;;;;;;19.00;99.90;;;;;;4936660;29;19927;-64
2023/06/23 07:14:52;;;;;;;;;;;19.00;99.90;;;;;;4945284;28;19927;-64
2023/06/23 07:17:19;;;;;;;;;;;19.10;99.90;;;;;;4945247;28;19926;-64
2023/06/23 07:19:45;;;;;;;;;;;19.10;99.90;;;;;;4948199;28;20389;-62
2023/06/23 07:22:12;;;;;;;;;;;19.10;99.90;;;;;;4943259;29;20448;-64
2023/06/23 07:24:39;;;;;;;;;;;19.00;99.90;;;;;;4944010;28;20394;-64
2023/06/23 07:27:06;;;;;;;;;;;19.10;99.90;;;;;;4940946;29;19931;-64
2023/06/23 07:29:33;;;;;;;;;;;19.20;99.90;;;;;;4944619;29;19926;-66
2023/06/23 07:32:02;;;;;;;;;;;19.30;99.90;;;;;;4946163;29;19926;-64
2023/06/23 07:34:29;;;;;;;;;;;19.20;99.90;;;;;;4942190;29;19979;-64
2023/06/23 07:36:56;;;;;;;;;;;19.10;99.90;;;;;;4943516;29;20013;-64
2023/06/23 07:39:22;;;;;;;;;;;19.30;99.90;;;;;;4936708;28;19926;-64
2023/06/23 07:41:49;;;;;;;;;;;19.30;99.90;;;;;;4939801;29;19927;-64
2023/06/23 07:44:16;;;;;;;;;;;19.30;99.90;;;;;;4939947;29;19938;-63
2023/06/23 07:46:43;;;;;;;;;;;19.20;99.90;;;;;;4937626;29;20022;-64
2023/06/23 07:49:11;;;;;;;;;;;19.20;99.90;;;;;;4944544;28;20386;-64
2023/06/23 07:51:38;;;;;;;;;;;19.20;99.90;;;;;;4944956;29;20301;-63
2023/06/23 07:54:05;;;;;;;;;;;19.20;99.90;;;;;;4945028;29;19934;-64
2023/06/23 07:56:31;;;;;;;;;;;19.10;99.90;;;;;;4939892;28;19937;-64
2023/06/23 07:58:58;;;;;;;;;;;19.20;99.90;;;;;;4947608;29;19926;-64
2023/06/23 08:01:25;;;;;;;;;;;19.40;99.90;;;;;;4938504;29;19930;-64
2023/06/23 08:03:52;;;;;;;;;;;19.50;99.90;;;;;;4940352;29;20286;-64
2023/06/23 08:06:23;;;;;;;;;;;19.60;99.90;;;;;;4943740;29;19931;-64
2023/06/23 08:08:50;;;;;;;;;;;19.60;99.90;;;;;;4942233;29;20297;-64
2023/06/23 08:11:17;;;;;;;;;;;19.60;99.90;;;;;;4934044;29;19931;-64
2023/06/23 08:13:44;;;;;;;;;;;19.70;99.90;;;;;;4949086;28;19934;-64
2023/06/23 08:16:11;;;;;;;;;;;19.70;99.90;;;;;;4937720;29;20338;-64
2023/06/23 08:18:37;;;;;;;;;;;19.60;99.90;;;;;;4941047;29;20317;-65
2023/06/23 08:21:04;;;;;;;;;;;19.70;99.90;;;;;;4943077;29;19927;-64
2023/06/23 08:23:32;;;;;;;;;;;19.80;99.90;;;;;;4944430;29;19942;-64
2023/06/23 08:25:59;;;;;;;;;;;19.80;99.90;;;;;;4938341;29;19930;-64
2023/06/23 08:28:26;;;;;;;;;;;19.90;99.90;;;;;;4944198;29;19930;-64
2023/06/23 08:30:53;;;;;;;;;;;20.00;99.90;;;;;;4943677;29;19926;-64
2023/06/23 08:33:19;;;;;;;;;;;20.20;99.90;;;;;;4942117;29;19927;-64
2023/06/23 08:35:46;;;;;;;;;;;20.40;99.90;;;;;;4945645;29;19938;-63
2023/06/23 08:38:14;;;;;;;;;;;20.50;99.90;;;;;;4944177;29;19927;-63
2023/06/23 08:40:42;;;;;;;;;;;20.40;99.90;;;;;;4955543;28;19926;-65
2023/06/23 08:43:09;;;;;;;;;;;20.30;99.90;;;;;;4945446;29;19931;-64
2023/06/23 08:45:40;;;;;;;;;;;20.40;99.90;;;;;;4948142;28;19931;-64
2023/06/23 08:48:07;;;;;;;;;;;20.50;99.90;;;;;;4940256;29;20314;-64
2023/06/23 08:50:34;;;;;;;;;;;20.40;99.90;;;;;;4947587;29;19927;-62
2023/06/23 08:53:01;;;;;;;;;;;20.50;99.90;;;;;;4939268;28;19998;-63
2023/06/23 08:55:28;;;;;;;;;;;20.60;99.90;;;;;;4945763;29;19926;-63
2023/06/23 08:58:00;;;;;;;;;;;20.60;99.90;;;;;;4939936;29;20275;-64
2023/06/23 09:00:27;;;;;;;;;;;20.60;99.90;;;;;;4939957;29;20406;-65
2023/06/23 09:02:54;;;;;;;;;;;20.60;99.90;;;;;;4941703;29;19934;-64
2023/06/23 09:05:20;;;;;;;;;;;20.70;99.90;;;;;;4941689;29;19931;-64
2023/06/23 09:07:47;;;;;;;;;;;20.90;99.90;;;;;;4937298;29;19926;-64
2023/06/23 09:10:14;;;;;;;;;;;21.00;99.90;;;;;;4945936;28;20361;-63
2023/06/23 09:12:42;;;;;;;;;;;21.10;99.90;;;;;;4936095;29;19934;-64
2023/06/23 09:15:11;;;;;;;;;;;21.20;99.90;;;;;;4947550;28;19959;-64
2023/06/23 09:17:39;;;;;;;;;;;21.30;99.90;;;;;;4937116;29;20406;-62
2023/06/23 09:20:07;;;;;;;;;;;21.30;99.90;;;;;;4942472;29;20428;-64
2023/06/23 09:22:34;;;;;;;;;;;21.30;99.90;;;;;;4939682;29;19938;-64
2023/06/23 09:25:01;;;;;;;;;;;21.20;99.90;;;;;;4945667;29;20013;-65
2023/06/23 09:27:40;;;;;;;;;;;21.30;99.90;;;;;;4936547;29;19927;-64
2023/06/23 09:30:07;;;;;;;;;;;21.50;99.90;;;;;;4938288;29;19931;-65
2023/06/23 09:32:35;;;;;;;;;;;21.50;99.90;;;;;;4935374;29;19978;-65
2023/06/23 09:35:02;;;;;;;;;;;21.50;99.90;;;;;;4941205;29;19945;-65
2023/06/23 09:37:35;;;;;;;;;;;21.40;99.90;;;;;;4939516;29;19930;-64
2023/06/23 09:40:04;;;;;;;;;;;21.60;99.90;;;;;;4940162;29;19927;-64
2023/06/23 09:42:33;;;;;;;;;;;21.70;99.90;;;;;;4941379;29;19958;-65
2023/06/23 09:45:00;;;;;;;;;;;21.70;99.90;;;;;;4942294;29;20009;-64
2023/06/23 09:47:29;;;;;;;;;;;21.80;99.90;;;;;;4935361;29;19985;-64
2023/06/23 09:49:57;;;;;;;;;;;22.00;99.90;;;;;;4938067;29;20291;-64
2023/06/23 09:52:24;;;;;;;;;;;22.00;99.90;;;;;;4934577;29;19930;-65
2023/06/23 09:54:51;;;;;;;;;;;21.90;99.90;;;;;;4938075;29;19927;-66
2023/06/23 09:57:19;;;;;;;;;;;22.00;99.90;;;;;;4938604;29;20017;-63
2023/06/23 09:59:46;;;;;;;;;;;22.10;99.90;;;;;;4934054;29;19934;-63
2023/06/23 10:02:20;;;;;;;;;;;22.10;99.90;;;;;;4934469;29;19927;-64
2023/06/23 10:04:48;;;;;;;;;;;22.30;99.90;;;;;;4942360;29;19927;-65
2023/06/23 10:07:20;;;;;;;;;;;22.40;99.90;;;;;;4931812;29;19935;-64
2023/06/23 10:09:52;;;;;;;;;;;22.40;99.90;;;;;;4937987;29;19937;-64
2023/06/23 10:12:21;;;;;;;;;;;22.40;99.90;;;;;;4935772;29;19927;-66
2023/06/23 10:14:48;;;;;;;;;;;22.50;99.90;;;;;;4940855;29;19974;-66
2023/06/23 10:17:15;;;;;;;;;;;22.60;99.90;;;;;;4935255;29;19934;-64
2023/06/23 10:19:43;;;;;;;;;;;22.70;99.90;;;;;;4937369;29;19926;-65
2023/06/23 10:22:11;;;;;;;;;;;22.80;99.90;;;;;;4942787;28;19927;-65
2023/06/23 10:24:39;;;;;;;;;;;22.70;99.90;;;;;;4945176;28;19938;-65
2023/06/23 10:27:08;;;;;;;;;;;22.70;99.90;;;;;;4937035;29;19935;-65
2023/06/23 10:29:38;;;;;;;;;;;22.70;99.90;;;;;;4941152;29;19964;-67
2023/06/23 10:32:07;;;;;;;;;;;22.70;99.90;;;;;;4933759;29;20287;-64
2023/06/23 10:34:34;;;;;;;;;;;22.80;99.90;;;;;;4935142;29;20409;-64
2023/06/23 10:37:03;;;;;;;;;;;23.00;99.90;;;;;;4936959;29;19927;-64
2023/06/23 10:39:32;;;;;;;;;;;23.10;99.90;;;;;;4936788;29;20382;-64
2023/06/23 10:42:00;;;;;;;;;;;22.90;99.90;;;;;;4939579;29;20457;-64
2023/06/23 10:44:28;;;;;;;;;;;23.10;99.90;;;;;;4944540;28;19937;-65
2023/06/23 10:46:54;;;;;;;;;;;23.10;99.90;;;;;;4946594;29;20006;-64
2023/06/23 10:49:22;;;;;;;;;;;23.10;99.90;;;;;;4946617;29;19969;-64
2023/06/23 10:51:49;;;;;;;;;;;23.30;99.90;;;;;;4938528;29;19965;-65
2023/06/23 10:54:26;;;;;;;;;;;23.40;99.90;;;;;;4938946;28;19931;-67
2023/06/23 10:56:53;;;;;;;;;;;23.40;99.90;;;;;;4931338;29;20290;-66
2023/06/23 10:59:22;;;;;;;;;;;23.50;99.90;;;;;;4936177;29;19926;-65
2023/06/23 11:02:08;;;;;;;;;;;23.60;99.90;;;;;;4934166;29;20405;-65
2023/06/23 11:04:36;;;;;;;;;;;23.70;99.90;;;;;;4942325;29;19927;-66
2023/06/23 11:07:03;;;;;;;;;;;23.70;99.90;;;;;;4932528;29;20347;-66
2023/06/23 11:09:43;;;;;;;;;;;23.70;99.90;;;;;;4932614;29;20309;-66
2023/06/23 11:12:25;;;;;;;;;;;23.90;99.90;;;;;;4943268;29;19927;-66
2023/06/23 11:14:53;;;;;;;;;;;24.10;99.90;;;;;;4932995;29;19927;-65
2023/06/23 11:17:21;;;;;;;;;;;24.30;99.90;;;;;;4938695;29;19926;-65
2023/06/23 11:19:50;;;;;;;;;;;24.40;99.90;;;;;;4939762;29;20354;-66
2023/06/23 11:22:21;;;;;;;;;;;24.30;99.90;;;;;;4933335;29;19926;-66
2023/06/23 11:24:52;;;;;;;;;;;24.30;99.90;;;;;;4935648;29;19931;-65
2023/06/23 11:27:19;;;;;;;;;;;24.20;99.90;;;;;;4939703;29;19927;-62
2023/06/23 11:30:00;;;;;;;;;;;24.10;99.90;;;;;;4932244;29;19927;-64
2023/06/23 11:32:28;;;;;;;;;;;24.20;99.90;;;;;;4930972;29;19934;-66
2023/06/23 11:34:57;;;;;;;;;;;24.50;99.90;;;;;;4933948;29;20283;-63
2023/06/23 11:37:25;;;;;;;;;;;24.80;99.90;;;;;;4932331;29;19927;-65
2023/06/23 11:39:53;;;;;;;;;;;25.10;99.90;;;;;;4929427;29;19930;-66
2023/06/23 11:42:20;;;;;;;;;;;25.40;99.90;;;;;;4946097;28;20416;-65
2023/06/23 11:44:47;;;;;;;;;;;26.30;99.90;;;;;;4937918;29;19985;-65
2023/06/23 11:47:14;;;;;;;;;;;27.20;99.90;;;;;;4940902;29;19927;-65
2023/06/23 11:49:42;;;;;;;;;;;28.20;99.90;;;;;;4938827;29;19927;-64
2023/06/23 11:52:10;;;;;;;;;;;28.10;99.90;;;;;;4937054;29;19982;-65
2023/06/23 11:54:38;;;;;;;;;;;28.30;99.90;;;;;;4937276;29;19950;-65
2023/06/23 11:57:05;;;;;;;;;;;28.90;99.90;;;;;;4935775;29;19927;-65
2023/06/23 11:59:36;;;;;;;;;;;29.50;99.90;;;;;;4932164;29;20359;-64
2023/06/23 12:02:03;;;;;;;;;;;29.30;99.90;;;;;;4937434;29;19931;-65
2023/06/23 12:04:31;;;;;;;;;;;29.30;99.90;;;;;;4936769;29;20014;-64
2023/06/23 12:07:00;;;;;;;;;;;29.80;99.90;;;;;;4936239;29;19942;-64
2023/06/23 12:09:26;;;;;;;;;;;31.20;99.90;;;;;;4934478;29;19962;-63
2023/06/23 12:11:54;;;;;;;;;;;31.00;99.90;;;;;;4938266;29;20414;-64
2023/06/23 12:14:27;;;;;;;;;;;30.90;99.90;;;;;;4942819;29;19927;-63
2023/06/23 12:16:54;;;;;;;;;;;30.70;99.90;;;;;;4938621;29;19961;-65
2023/06/23 12:19:21;;;;;;;;;;;31.30;99.90;;;;;;4939389;29;19931;-65
2023/06/23 12:21:49;;;;;;;;;;;30.80;99.90;;;;;;4936044;29;19927;-65
2023/06/23 12:24:19;;;;;;;;;;;31.10;99.90;;;;;;4942601;28;20456;-64
2023/06/23 12:26:46;;;;;;;;;;;31.30;99.90;;;;;;4942400;28;19927;-65
2023/06/23 12:29:13;;;;;;;;;;;31.10;99.90;;;;;;4940343;29;19927;-64
2023/06/23 12:31:40;;;;;;;;;;;31.40;99.90;;;;;;4940410;29;19930;-64
2023/06/23 12:34:06;;;;;;;;;;;31.20;99.90;;;;;;4938022;29;19962;-64
2023/06/23 12:36:33;;;;;;;;;;;32.10;99.90;;;;;;4935638;29;19927;-66
2023/06/23 12:39:01;;;;;;;;;;;32.90;99.90;;;;;;4937808;29;19930;-64
2023/06/23 12:41:29;;;;;;;;;;;32.40;99.90;;;;;;4936032;29;19934;-65
2023/06/23 12:43:58;;;;;;;;;;;31.90;99.90;;;;;;4941141;29;19931;-65
2023/06/23 12:46:25;;;;;;;;;;;31.00;99.90;;;;;;4931967;29;20378;-64
2023/06/23 12:48:53;;;;;;;;;;;30.80;99.90;;;;;;4939127;29;19931;-65
2023/06/23 12:51:31;;;;;;;;;;;30.60;99.90;;;;;;4943219;28;19931;-64
2023/06/23 12:53:57;;;;;;;;;;;30.40;99.90;;;;;;4935388;29;20398;-65
2023/06/23 12:56:24;;;;;;;;;;;30.90;99.90;;;;;;4934956;29;19934;-64
2023/06/23 12:58:52;;;;;;;;;;;31.50;99.90;;;;;;4937305;29;20510;-65
2023/06/23 13:01:19;;;;;;;;;;;31.60;99.90;;;;;;4934645;29;19930;-63
2023/06/23 13:03:47;;;;;;;;;;;32.70;99.90;;;;;;4941146;29;19934;-64
2023/06/23 13:06:13;;;;;;;;;;;33.10;99.90;;;;;;4942055;29;19977;-63
2023/06/23 13:08:41;;;;;;;;;;;33.00;99.90;;;;;;4940489;28;19934;-64
2023/06/23 13:11:08;;;;;;;;;;;32.50;99.90;;;;;;4949514;29;20301;-63
2023/06/23 13:13:34;;;;;;;;;;;32.60;99.90;;;;;;4945093;29;19926;-64
2023/06/23 13:16:03;;;;;;;;;;;32.70;99.90;;;;;;4947766;29;19934;-64
2023/06/23 13:18:29;;;;;;;;;;;32.90;99.90;;;;;;4944498;29;20013;-64
2023/06/23 13:20:56;;;;;;;;;;;32.60;99.90;;;;;;4935138;29;19927;-64
2023/06/23 13:23:23;;;;;;;;;;;32.40;99.90;;;;;;4946841;29;19927;-64
2023/06/23 13:25:50;;;;;;;;;;;32.00;99.90;;;;;;4939325;29;19935;-64
2023/06/23 13:28:16;;;;;;;;;;;30.90;99.90;;;;;;4959028;28;19926;-64
2023/06/23 13:30:43;;;;;;;;;;;30.80;99.90;;;;;;4937334;29;19951;-63
2023/06/23 13:33:11;;;;;;;;;;;31.00;99.90;;;;;;4942588;29;19931;-64
2023/06/23 13:35:38;;;;;;;;;;;31.40;99.90;;;;;;4931294;29;19935;-63
2023/06/23 13:38:05;;;;;;;;;;;31.40;99.90;;;;;;4935628;29;19931;-64
2023/06/23 13:40:31;;;;;;;;;;;31.40;99.90;;;;;;4946640;29;19927;-65
2023/06/23 13:42:59;;;;;;;;;;;32.30;99.90;;;;;;4942243;29;19927;-62
2023/06/23 13:45:27;;;;;;;;;;;32.40;99.90;;;;;;4935614;29;20406;-62
2023/06/23 13:47:54;;;;;;;;;;;32.60;99.90;;;;;;4939402;29;19926;-64
2023/06/23 13:50:22;;;;;;;;;;;32.50;99.90;;;;;;4949620;29;20314;-64
2023/06/23 13:52:49;;;;;;;;;;;32.90;99.90;;;;;;4939142;29;19926;-64
2023/06/23 13:55:16;;;;;;;;;;;33.00;99.90;;;;;;4936909;29;19933;-64
2023/06/23 13:57:43;;;;;;;;;;;32.30;99.90;;;;;;4953267;29;19926;-64
2023/06/23 14:00:10;;;;;;;;;;;32.00;99.90;;;;;;4937998;29;19927;-64
2023/06/23 14:02:37;;;;;;;;;;;32.10;99.90;;;;;;4945245;29;19927;-64
2023/06/23 14:05:04;;;;;;;;;;;32.20;99.90;;;;;;4939048;28;19935;-65
2023/06/23 14:07:32;;;;;;;;;;;31.80;99.90;;;;;;4941812;29;19930;-64
2023/06/23 14:09:59;;;;;;;;;;;31.50;99.90;;;;;;4940624;29;19927;-64
2023/06/23 14:12:25;;;;;;;;;;;31.20;99.90;;;;;;4957719;28;19977;-64
2023/06/23 14:14:52;;;;;;;;;;;30.60;99.90;;;;;;4943249;29;20366;-63
2023/06/23 14:17:19;;;;;;;;;;;30.30;99.90;;;;;;4939685;29;19927;-66
2023/06/23 14:19:46;;;;;;;;;;;30.30;99.90;;;;;;4942007;28;19930;-65
2023/06/23 14:22:13;;;;;;;;;;;31.00;99.90;;;;;;4945526;29;19927;-65
2023/06/23 14:24:42;;;;;;;;;;;31.40;99.90;;;;;;4946055;29;19939;-64